sensor_id;sensor_type;location;lat;lon;timestamp;temperature;humidity
3758;DHT22;1894;51.038;13.692;2022-10-22T00:00:16;11.40;99.90
3758;DHT22;1894;51.038;13.692;2022-10-22T00:02:44;11.40;99.90
3758;DHT22;1894;51.038;13.692;2022-10-22T00:05:12;11.50;99.90
3758;DHT22;1894;51.038;13.692;2022-10-22T00:07:39;11.60;99.90
3758;DHT22;1894;51.038;13.692;2022-10-22T00:10:07;11.60;99.90
3758;DHT22;1894;51.038;13.692;2022-10-22T00:12:35;11.70;99.90
3758;DHT22;1894;51.038;13.692;2022-10-22T00:15:05;11.70;99.90
3758;DHT22;1894;51.038;13.692;2022-10-22T00:17:32;11.60;99.90
3758;DHT22;1894;51.038;13.692;2022-10-22T00:20:00;11.70;99.90
3758;DHT22;1894;51.038;13.692;2022-10-22T00:22:27;11.70;99.90
3758;DHT22;1894;51.038;13.692;2022-10-22T00:24:54;11.70;99.90
3758;DHT22;1894;51.038;13.692;2022-10-22T00:27:21;11.70;99.90
3758;DHT22;1894;51.038;13.692;2022-10-22T00:29:48;11.80;99.90
3758;DHT22;1894;51.038;13.692;2022-10-22T00:32:15;11.60;99.90
3758;DHT22;1894;51.038;13.692;2022-10-22T00:34:42;11.60;99.90
3758;DHT22;1894;51.038;13.692;2022-10-22T00:37:09;11.40;99.90
3758;DHT22;1894;51.038;13.692;2022-10-22T00:39:37;11.50;99.90
3758;DHT22;1894;51.038;13.692;2022-10-22T00:42:04;11.50;99.90
3758;DHT22;1894;51.038;13.692;2022-10-22T00:45:04;11.30;99.90
3758;DHT22;1894;51.038;13.692;2022-10-22T00:47:53;11.30;99.90
3758;DHT22;1894;51.038;13.692;2022-10-22T00:50:37;11.40;99.90
3758;DHT22;1894;51.038;13.692;2022-10-22T00:53:12;11.40;99.90
3758;DHT22;1894;51.038;13.692;2022-10-22T00:55:47;11.40;99.90
3758;DHT22;1894;51.038;13.692;2022-10-22T00:58:19;11.30;99.90
3758;DHT22;1894;51.038;13.692;2022-10-22T01:00:49;11.40;99.90
3758;DHT22;1894;51.038;13.692;2022-10-22T01:03:17;11.50;99.90
3758;DHT22;1894;51.038;13.692;2022-10-22T01:05:56;11.70;99.90
3758;DHT22;1894;51.038;13.692;2022-10-22T01:11:39;11.60;99.90
3758;DHT22;1894;51.038;13.692;2022-10-22T01:14:21;11.70;99.90
3758;DHT22;1894;51.038;13.692;2022-10-22T01:22:41;11.80;99.90
3758;DHT22;1894;51.038;13.692;2022-10-22T01:25:27;11.80;99.90
3758;DHT22;1894;51.038;13.692;2022-10-22T01:31:15;11.80;99.90
3758;DHT22;1894;51.038;13.692;2022-10-22T01:33:45;11.90;99.90
3758;DHT22;1894;51.038;13.692;2022-10-22T01:36:14;11.90;99.90
3758;DHT22;1894;51.038;13.692;2022-10-22T01:38:43;12.00;99.90
3758;DHT22;1894;51.038;13.692;2022-10-22T01:41:11;12.10;99.90
3758;DHT22;1894;51.038;13.692;2022-10-22T01:43:39;12.10;99.90
3758;DHT22;1894;51.038;13.692;2022-10-22T01:46:08;12.10;99.90
3758;DHT22;1894;51.038;13.692;2022-10-22T01:56:54;12.10;99.90
3758;DHT22;1894;51.038;13.692;2022-10-22T01:59:49;12.10;99.90
3758;DHT22;1894;51.038;13.692;2022-10-22T02:05:13;12.10;99.90
3758;DHT22;1894;51.038;13.692;2022-10-22T02:07:55;12.00;99.90
3758;DHT22;1894;51.038;13.692;2022-10-22T02:10:26;12.10;99.90
3758;DHT22;1894;51.038;13.692;2022-10-22T02:12:57;12.00;99.90
3758;DHT22;1894;51.038;13.692;2022-10-22T02:15:26;12.00;99.90
3758;DHT22;1894;51.038;13.692;2022-10-22T02:17:56;11.90;99.90
3758;DHT22;1894;51.038;13.692;2022-10-22T02:20:30;11.90;99.90
3758;DHT22;1894;51.038;13.692;2022-10-22T02:22:59;11.80;99.90
3758;DHT22;1894;51.038;13.692;2022-10-22T02:25:31;11.90;99.90
3758;DHT22;1894;51.038;13.692;2022-10-22T02:28:21;11.90;99.90
3758;DHT22;1894;51.038;13.692;2022-10-22T02:30:55;12.00;99.90
3758;DHT22;1894;51.038;13.692;2022-10-22T02:33:29;12.10;99.90
3758;DHT22;1894;51.038;13.692;2022-10-22T02:36:00;12.10;99.90
3758;DHT22;1894;51.038;13.692;2022-10-22T02:38:29;12.20;99.90
3758;DHT22;1894;51.038;13.692;2022-10-22T02:40:57;12.20;99.90
3758;DHT22;1894;51.038;13.692;2022-10-22T02:43:24;12.20;99.90
3758;DHT22;1894;51.038;13.692;2022-10-22T02:45:51;12.20;99.90
3758;DHT22;1894;51.038;13.692;2022-10-22T02:48:19;12.20;99.90
3758;DHT22;1894;51.038;13.692;2022-10-22T02:50:51;12.20;99.90
3758;DHT22;1894;51.038;13.692;2022-10-22T02:53:18;12.20;99.90
3758;DHT22;1894;51.038;13.692;2022-10-22T02:55:45;12.20;99.90
3758;DHT22;1894;51.038;13.692;2022-10-22T02:58:15;12.10;99.90
3758;DHT22;1894;51.038;13.692;2022-10-22T03:00:42;12.10;99.90
3758;DHT22;1894;51.038;13.692;2022-10-22T03:03:10;12.10;99.90
3758;DHT22;1894;51.038;13.692;2022-10-22T03:05:37;12.10;99.90
3758;DHT22;1894;51.038;13.692;2022-10-22T03:08:04;12.20;99.90
3758;DHT22;1894;51.038;13.692;2022-10-22T03:10:31;12.20;99.90
3758;DHT22;1894;51.038;13.692;2022-10-22T03:12:59;12.30;99.90
3758;DHT22;1894;51.038;13.692;2022-10-22T03:15:26;12.20;99.90
3758;DHT22;1894;51.038;13.692;2022-10-22T03:17:58;12.20;99.90
3758;DHT22;1894;51.038;13.692;2022-10-22T03:20:25;12.30;99.90
3758;DHT22;1894;51.038;13.692;2022-10-22T03:22:53;12.30;99.90
3758;DHT22;1894;51.038;13.692;2022-10-22T03:25:24;12.30;99.90
3758;DHT22;1894;51.038;13.692;2022-10-22T03:27:55;12.30;99.90
3758;DHT22;1894;51.038;13.692;2022-10-22T03:30:23;12.10;99.90
3758;DHT22;1894;51.038;13.692;2022-10-22T03:32:51;12.00;99.90
3758;DHT22;1894;51.038;13.692;2022-10-22T03:35:18;12.00;99.90
3758;DHT22;1894;51.038;13.692;2022-10-22T03:37:45;12.10;99.90
3758;DHT22;1894;51.038;13.692;2022-10-22T03:40:12;12.00;99.90
3758;DHT22;1894;51.038;13.692;2022-10-22T03:42:40;12.10;99.90
3758;DHT22;1894;51.038;13.692;2022-10-22T03:45:08;12.20;99.90
3758;DHT22;1894;51.038;13.692;2022-10-22T03:47:36;12.30;99.90
3758;DHT22;1894;51.038;13.692;2022-10-22T03:50:04;12.30;99.90
3758;DHT22;1894;51.038;13.692;2022-10-22T03:52:37;12.30;99.90
3758;DHT22;1894;51.038;13.692;2022-10-22T03:55:06;12.30;99.90
3758;DHT22;1894;51.038;13.692;2022-10-22T03:57:33;12.30;99.90
3758;DHT22;1894;51.038;13.692;2022-10-22T04:00:02;12.30;99.90
3758;DHT22;1894;51.038;13.692;2022-10-22T04:02:30;12.30;99.90
3758;DHT22;1894;51.038;13.692;2022-10-22T04:04:57;12.40;99.90
3758;DHT22;1894;51.038;13.692;2022-10-22T04:07:25;12.40;99.90
3758;DHT22;1894;51.038;13.692;2022-10-22T04:09:52;12.40;99.90
3758;DHT22;1894;51.038;13.692;2022-10-22T04:12:19;12.40;99.90
3758;DHT22;1894;51.038;13.692;2022-10-22T04:14:46;12.40;99.90
3758;DHT22;1894;51.038;13.692;2022-10-22T04:17:20;12.30;99.90
3758;DHT22;1894;51.038;13.692;2022-10-22T04:19:47;12.20;99.90
3758;DHT22;1894;51.038;13.692;2022-10-22T04:22:14;12.20;99.90
3758;DHT22;1894;51.038;13.692;2022-10-22T04:24:41;12.20;99.90
3758;DHT22;1894;51.038;13.692;2022-10-22T04:27:08;12.10;99.90
3758;DHT22;1894;51.038;13.692;2022-10-22T04:29:35;12.10;99.90
3758;DHT22;1894;51.038;13.692;2022-10-22T04:32:02;12.10;99.90
3758;DHT22;1894;51.038;13.692;2022-10-22T04:34:29;12.10;99.90
3758;DHT22;1894;51.038;13.692;2022-10-22T04:36:57;12.10;99.90
3758;DHT22;1894;51.038;13.692;2022-10-22T04:39:24;12.10;99.90
3758;DHT22;1894;51.038;13.692;2022-10-22T04:41:51;12.10;99.90
3758;DHT22;1894;51.038;13.692;2022-10-22T04:44:18;12.10;99.90
3758;DHT22;1894;51.038;13.692;2022-10-22T04:46:45;12.00;99.90
3758;DHT22;1894;51.038;13.692;2022-10-22T04:49:12;11.90;99.90
3758;DHT22;1894;51.038;13.692;2022-10-22T04:51:40;11.90;99.90
3758;DHT22;1894;51.038;13.692;2022-10-22T04:54:07;11.80;99.90
3758;DHT22;1894;51.038;13.692;2022-10-22T04:56:34;11.90;99.90
3758;DHT22;1894;51.038;13.692;2022-10-22T04:59:04;11.80;99.90
3758;DHT22;1894;51.038;13.692;2022-10-22T05:01:40;11.80;99.90
3758;DHT22;1894;51.038;13.692;2022-10-22T05:04:14;11.80;99.90
3758;DHT22;1894;51.038;13.692;2022-10-22T05:06:43;11.90;99.90
3758;DHT22;1894;51.038;13.692;2022-10-22T05:09:12;11.80;99.90
3758;DHT22;1894;51.038;13.692;2022-10-22T05:11:44;11.80;99.90
3758;DHT22;1894;51.038;13.692;2022-10-22T05:14:16;11.80;99.90
3758;DHT22;1894;51.038;13.692;2022-10-22T05:16:49;11.80;99.90
3758;DHT22;1894;51.038;13.692;2022-10-22T05:19:22;11.80;99.90
3758;DHT22;1894;51.038;13.692;2022-10-22T05:21:51;11.70;99.90
3758;DHT22;1894;51.038;13.692;2022-10-22T05:24:20;11.60;99.90
3758;DHT22;1894;51.038;13.692;2022-10-22T05:26:48;11.60;99.90
3758;DHT22;1894;51.038;13.692;2022-10-22T05:29:16;11.70;99.90
3758;DHT22;1894;51.038;13.692;2022-10-22T05:31:44;11.70;99.90
3758;DHT22;1894;51.038;13.692;2022-10-22T05:34:11;11.80;99.90
3758;DHT22;1894;51.038;13.692;2022-10-22T05:36:38;11.80;99.90
3758;DHT22;1894;51.038;13.692;2022-10-22T05:39:06;11.80;99.90
3758;DHT22;1894;51.038;13.692;2022-10-22T05:41:34;11.80;99.90
3758;DHT22;1894;51.038;13.692;2022-10-22T05:44:01;11.80;99.90
3758;DHT22;1894;51.038;13.692;2022-10-22T05:46:32;11.70;99.90
3758;DHT22;1894;51.038;13.692;2022-10-22T05:49:02;11.70;99.90
3758;DHT22;1894;51.038;13.692;2022-10-22T05:51:33;11.80;99.90
3758;DHT22;1894;51.038;13.692;2022-10-22T05:54:04;11.80;99.90
3758;DHT22;1894;51.038;13.692;2022-10-22T05:56:34;11.90;99.90
3758;DHT22;1894;51.038;13.692;2022-10-22T05:59:01;12.00;99.90
3758;DHT22;1894;51.038;13.692;2022-10-22T06:01:34;12.10;99.90
3758;DHT22;1894;51.038;13.692;2022-10-22T06:04:04;12.10;99.90
3758;DHT22;1894;51.038;13.692;2022-10-22T06:06:35;12.10;99.90
3758;DHT22;1894;51.038;13.692;2022-10-22T06:09:12;12.20;99.90
3758;DHT22;1894;51.038;13.692;2022-10-22T06:11:42;12.20;99.90
3758;DHT22;1894;51.038;13.692;2022-10-22T06:14:09;12.30;99.90
3758;DHT22;1894;51.038;13.692;2022-10-22T06:16:37;12.30;99.90
3758;DHT22;1894;51.038;13.692;2022-10-22T06:19:04;12.20;99.90
3758;DHT22;1894;51.038;13.692;2022-10-22T06:21:31;12.30;99.90
3758;DHT22;1894;51.038;13.692;2022-10-22T06:24:00;12.30;99.90
3758;DHT22;1894;51.038;13.692;2022-10-22T06:26:28;12.20;99.90
3758;DHT22;1894;51.038;13.692;2022-10-22T06:28:56;12.30;99.90
3758;DHT22;1894;51.038;13.692;2022-10-22T06:31:25;12.30;99.90
3758;DHT22;1894;51.038;13.692;2022-10-22T06:33:52;12.40;99.90
3758;DHT22;1894;51.038;13.692;2022-10-22T06:36:22;12.40;99.90
3758;DHT22;1894;51.038;13.692;2022-10-22T06:38:53;12.50;99.90
3758;DHT22;1894;51.038;13.692;2022-10-22T06:41:22;12.50;99.90
3758;DHT22;1894;51.038;13.692;2022-10-22T06:43:55;12.50;99.90
3758;DHT22;1894;51.038;13.692;2022-10-22T06:46:24;12.50;99.90
3758;DHT22;1894;51.038;13.692;2022-10-22T06:48:59;12.50;99.90
3758;DHT22;1894;51.038;13.692;2022-10-22T06:51:29;12.60;99.90
3758;DHT22;1894;51.038;13.692;2022-10-22T06:53:57;12.60;99.90
3758;DHT22;1894;51.038;13.692;2022-10-22T06:56:26;12.70;99.90
3758;DHT22;1894;51.038;13.692;2022-10-22T06:58:55;12.60;99.90
3758;DHT22;1894;51.038;13.692;2022-10-22T07:01:29;12.60;99.90
3758;DHT22;1894;51.038;13.692;2022-10-22T07:03:58;12.70;99.90
3758;DHT22;1894;51.038;13.692;2022-10-22T07:06:27;12.60;99.90
3758;DHT22;1894;51.038;13.692;2022-10-22T07:08:56;12.70;99.90
3758;DHT22;1894;51.038;13.692;2022-10-22T07:11:27;12.80;99.90
3758;DHT22;1894;51.038;13.692;2022-10-22T07:13:57;12.80;99.90
3758;DHT22;1894;51.038;13.692;2022-10-22T07:16:25;12.80;99.90
3758;DHT22;1894;51.038;13.692;2022-10-22T07:19:01;12.90;99.90
3758;DHT22;1894;51.038;13.692;2022-10-22T07:21:30;13.00;99.90
3758;DHT22;1894;51.038;13.692;2022-10-22T07:23:58;13.00;99.90
3758;DHT22;1894;51.038;13.692;2022-10-22T07:26:26;13.00;99.90
3758;DHT22;1894;51.038;13.692;2022-10-22T07:28:56;12.90;99.90
3758;DHT22;1894;51.038;13.692;2022-10-22T07:31:24;13.00;99.90
3758;DHT22;1894;51.038;13.692;2022-10-22T07:33:51;13.00;99.90
3758;DHT22;1894;51.038;13.692;2022-10-22T07:36:19;13.00;99.90
3758;DHT22;1894;51.038;13.692;2022-10-22T07:38:50;13.00;99.90
3758;DHT22;1894;51.038;13.692;2022-10-22T07:41:21;13.00;99.90
3758;DHT22;1894;51.038;13.692;2022-10-22T07:43:49;13.00;99.90
3758;DHT22;1894;51.038;13.692;2022-10-22T07:46:16;12.90;99.90
3758;DHT22;1894;51.038;13.692;2022-10-22T07:48:43;12.90;99.90
3758;DHT22;1894;51.038;13.692;2022-10-22T07:51:11;12.60;99.90
3758;DHT22;1894;51.038;13.692;2022-10-22T07:53:38;12.60;99.90
3758;DHT22;1894;51.038;13.692;2022-10-22T07:56:05;12.60;99.90
3758;DHT22;1894;51.038;13.692;2022-10-22T07:58:33;12.60;99.90
3758;DHT22;1894;51.038;13.692;2022-10-22T08:01:01;12.50;99.90
3758;DHT22;1894;51.038;13.692;2022-10-22T08:03:32;12.60;99.90
3758;DHT22;1894;51.038;13.692;2022-10-22T08:05:59;13.00;99.90
3758;DHT22;1894;51.038;13.692;2022-10-22T08:08:27;13.60;99.90
3758;DHT22;1894;51.038;13.692;2022-10-22T08:11:02;13.80;99.90
3758;DHT22;1894;51.038;13.692;2022-10-22T08:13:30;14.00;99.90
3758;DHT22;1894;51.038;13.692;2022-10-22T08:15:58;14.10;99.90
3758;DHT22;1894;51.038;13.692;2022-10-22T08:18:26;14.10;99.90
3758;DHT22;1894;51.038;13.692;2022-10-22T08:20:54;14.10;99.90
3758;DHT22;1894;51.038;13.692;2022-10-22T08:23:21;14.10;99.90
3758;DHT22;1894;51.038;13.692;2022-10-22T08:25:53;14.00;99.90
3758;DHT22;1894;51.038;13.692;2022-10-22T08:28:20;14.10;99.90
3758;DHT22;1894;51.038;13.692;2022-10-22T08:30:48;14.10;99.90
3758;DHT22;1894;51.038;13.692;2022-10-22T08:33:15;14.20;99.90
3758;DHT22;1894;51.038;13.692;2022-10-22T08:35:47;14.30;99.90
3758;DHT22;1894;51.038;13.692;2022-10-22T08:38:15;14.30;99.90
3758;DHT22;1894;51.038;13.692;2022-10-22T08:40:46;14.40;99.90
3758;DHT22;1894;51.038;13.692;2022-10-22T08:49:33;14.70;99.90
3758;DHT22;1894;51.038;13.692;2022-10-22T08:52:12;14.80;99.90
3758;DHT22;1894;51.038;13.692;2022-10-22T09:00:26;14.90;99.90
3758;DHT22;1894;51.038;13.692;2022-10-22T09:08:29;15.10;99.90
3758;DHT22;1894;51.038;13.692;2022-10-22T09:13:41;15.30;99.90
3758;DHT22;1894;51.038;13.692;2022-10-22T09:22:21;15.30;99.90
3758;DHT22;1894;51.038;13.692;2022-10-22T09:25:22;15.50;99.90
3758;DHT22;1894;51.038;13.692;2022-10-22T09:27:51;15.60;99.90
3758;DHT22;1894;51.038;13.692;2022-10-22T09:30:22;15.60;99.90
3758;DHT22;1894;51.038;13.692;2022-10-22T09:38:13;16.30;99.90
3758;DHT22;1894;51.038;13.692;2022-10-22T09:40:50;16.50;99.90
3758;DHT22;1894;51.038;13.692;2022-10-22T09:43:19;16.60;99.90
3758;DHT22;1894;51.038;13.692;2022-10-22T09:45:47;16.50;99.90
3758;DHT22;1894;51.038;13.692;2022-10-22T09:48:20;16.60;99.90
3758;DHT22;1894;51.038;13.692;2022-10-22T09:53:37;17.00;99.90
3758;DHT22;1894;51.038;13.692;2022-10-22T09:56:50;17.10;99.90
3758;DHT22;1894;51.038;13.692;2022-10-22T09:59:35;17.20;99.90
3758;DHT22;1894;51.038;13.692;2022-10-22T10:02:30;17.30;99.90
3758;DHT22;1894;51.038;13.692;2022-10-22T10:05:05;16.60;99.90
3758;DHT22;1894;51.038;13.692;2022-10-22T10:07:34;16.90;99.90
3758;DHT22;1894;51.038;13.692;2022-10-22T10:10:05;17.00;99.90
3758;DHT22;1894;51.038;13.692;2022-10-22T10:13:00;17.10;99.90
3758;DHT22;1894;51.038;13.692;2022-10-22T10:16:26;17.20;99.90
3758;DHT22;1894;51.038;13.692;2022-10-22T10:25:23;17.90;99.90
3758;DHT22;1894;51.038;13.692;2022-10-22T10:31:07;18.50;99.90
3758;DHT22;1894;51.038;13.692;2022-10-22T10:34:17;19.20;99.90
3758;DHT22;1894;51.038;13.692;2022-10-22T10:42:43;18.70;99.90
3758;DHT22;1894;51.038;13.692;2022-10-22T10:45:24;19.10;99.90
3758;DHT22;1894;51.038;13.692;2022-10-22T10:48:30;19.60;99.90
3758;DHT22;1894;51.038;13.692;2022-10-22T10:54:17;18.90;99.90
3758;DHT22;1894;51.038;13.692;2022-10-22T10:57:12;19.00;99.90
3758;DHT22;1894;51.038;13.692;2022-10-22T11:05:25;20.10;99.90
3758;DHT22;1894;51.038;13.692;2022-10-22T11:13:40;19.50;99.90
3758;DHT22;1894;51.038;13.692;2022-10-22T11:16:22;19.20;99.90
3758;DHT22;1894;51.038;13.692;2022-10-22T11:24:29;18.00;99.90
3758;DHT22;1894;51.038;13.692;2022-10-22T11:27:17;17.50;99.90
3758;DHT22;1894;51.038;13.692;2022-10-22T11:30:12;17.50;99.90
3758;DHT22;1894;51.038;13.692;2022-10-22T11:32:51;17.70;99.90
3758;DHT22;1894;51.038;13.692;2022-10-22T11:35:25;17.70;99.90
3758;DHT22;1894;51.038;13.692;2022-10-22T11:37:57;17.70;99.90
3758;DHT22;1894;51.038;13.692;2022-10-22T11:42:57;18.10;99.90
3758;DHT22;1894;51.038;13.692;2022-10-22T11:45:29;18.40;99.90
3758;DHT22;1894;51.038;13.692;2022-10-22T11:50:50;18.60;99.90
3758;DHT22;1894;51.038;13.692;2022-10-22T11:58:40;18.50;99.90
3758;DHT22;1894;51.038;13.692;2022-10-22T12:03:48;18.10;99.90
3758;DHT22;1894;51.038;13.692;2022-10-22T12:09:01;18.50;99.90
3758;DHT22;1894;51.038;13.692;2022-10-22T12:11:45;19.00;99.90
3758;DHT22;1894;51.038;13.692;2022-10-22T12:14:22;18.70;99.90
3758;DHT22;1894;51.038;13.692;2022-10-22T12:17:14;18.90;99.90
3758;DHT22;1894;51.038;13.692;2022-10-22T12:20:06;18.80;99.90
3758;DHT22;1894;51.038;13.692;2022-10-22T12:22:38;18.80;99.90
3758;DHT22;1894;51.038;13.692;2022-10-22T12:25:21;18.90;99.90
3758;DHT22;1894;51.038;13.692;2022-10-22T12:27:52;19.60;99.90
3758;DHT22;1894;51.038;13.692;2022-10-22T12:30:23;21.50;99.90
3758;DHT22;1894;51.038;13.692;2022-10-22T12:32:57;23.00;99.90
3758;DHT22;1894;51.038;13.692;2022-10-22T12:35:30;24.90;99.90
3758;DHT22;1894;51.038;13.692;2022-10-22T12:38:02;26.00;99.90
3758;DHT22;1894;51.038;13.692;2022-10-22T12:40:34;24.50;99.90
3758;DHT22;1894;51.038;13.692;2022-10-22T12:43:10;25.10;99.90
3758;DHT22;1894;51.038;13.692;2022-10-22T12:45:47;26.70;99.90
3758;DHT22;1894;51.038;13.692;2022-10-22T12:48:32;28.00;99.90
3758;DHT22;1894;51.038;13.692;2022-10-22T12:51:05;28.30;99.90
3758;DHT22;1894;51.038;13.692;2022-10-22T12:56:24;28.40;99.80
3758;DHT22;1894;51.038;13.692;2022-10-22T12:59:00;28.70;98.20
3758;DHT22;1894;51.038;13.692;2022-10-22T13:01:35;27.50;99.90
3758;DHT22;1894;51.038;13.692;2022-10-22T13:12:26;27.90;94.00
3758;DHT22;1894;51.038;13.692;2022-10-22T13:15:18;28.40;94.50
3758;DHT22;1894;51.038;13.692;2022-10-22T13:17:48;29.60;91.60
3758;DHT22;1894;51.038;13.692;2022-10-22T13:20:21;28.30;93.10
3758;DHT22;1894;51.038;13.692;2022-10-22T13:22:59;28.30;93.10
3758;DHT22;1894;51.038;13.692;2022-10-22T13:25:35;28.00;93.00
3758;DHT22;1894;51.038;13.692;2022-10-22T13:30:49;27.90;93.80
3758;DHT22;1894;51.038;13.692;2022-10-22T13:33:28;29.00;92.00
3758;DHT22;1894;51.038;13.692;2022-10-22T13:35:56;29.60;90.70
3758;DHT22;1894;51.038;13.692;2022-10-22T13:38:25;29.00;92.00
3758;DHT22;1894;51.038;13.692;2022-10-22T13:40:54;29.20;91.50
3758;DHT22;1894;51.038;13.692;2022-10-22T13:43:21;29.60;90.30
3758;DHT22;1894;51.038;13.692;2022-10-22T13:45:53;29.90;89.20
3758;DHT22;1894;51.038;13.692;2022-10-22T13:48:23;29.20;89.20
3758;DHT22;1894;51.038;13.692;2022-10-22T13:50:51;28.50;90.50
3758;DHT22;1894;51.038;13.692;2022-10-22T13:53:27;27.90;91.00
3758;DHT22;1894;51.038;13.692;2022-10-22T13:55:54;28.60;90.70
3758;DHT22;1894;51.038;13.692;2022-10-22T13:58:23;29.40;89.90
3758;DHT22;1894;51.038;13.692;2022-10-22T14:00:53;28.60;90.10
3758;DHT22;1894;51.038;13.692;2022-10-22T14:03:27;29.30;89.10
3758;DHT22;1894;51.038;13.692;2022-10-22T14:05:56;28.20;90.30
3758;DHT22;1894;51.038;13.692;2022-10-22T14:08:24;29.50;89.50
3758;DHT22;1894;51.038;13.692;2022-10-22T14:10:53;29.70;88.10
3758;DHT22;1894;51.038;13.692;2022-10-22T14:13:21;29.90;88.00
3758;DHT22;1894;51.038;13.692;2022-10-22T14:15:49;28.40;89.10
3758;DHT22;1894;51.038;13.692;2022-10-22T14:18:27;26.80;93.30
3758;DHT22;1894;51.038;13.692;2022-10-22T14:20:59;25.90;95.40
3758;DHT22;1894;51.038;13.692;2022-10-22T14:23:32;24.90;99.20
3758;DHT22;1894;51.038;13.692;2022-10-22T14:25:59;25.40;99.80
3758;DHT22;1894;51.038;13.692;2022-10-22T14:28:27;26.30;97.60
3758;DHT22;1894;51.038;13.692;2022-10-22T14:30:57;25.80;99.30
3758;DHT22;1894;51.038;13.692;2022-10-22T14:33:30;27.20;96.50
3758;DHT22;1894;51.038;13.692;2022-10-22T14:35:59;26.40;98.20
3758;DHT22;1894;51.038;13.692;2022-10-22T14:38:27;28.00;95.70
3758;DHT22;1894;51.038;13.692;2022-10-22T14:40:55;29.00;92.40
3758;DHT22;1894;51.038;13.692;2022-10-22T14:43:25;30.20;90.30
3758;DHT22;1894;51.038;13.692;2022-10-22T14:45:54;27.90;92.70
3758;DHT22;1894;51.038;13.692;2022-10-22T14:48:21;26.20;97.20
3758;DHT22;1894;51.038;13.692;2022-10-22T14:50:49;24.50;99.90
3758;DHT22;1894;51.038;13.692;2022-10-22T14:53:16;23.70;99.90
3758;DHT22;1894;51.038;13.692;2022-10-22T14:55:44;23.00;99.90
3758;DHT22;1894;51.038;13.692;2022-10-22T14:58:13;22.50;99.90
3758;DHT22;1894;51.038;13.692;2022-10-22T15:00:41;22.00;99.90
3758;DHT22;1894;51.038;13.692;2022-10-22T15:03:10;21.10;99.90
3758;DHT22;1894;51.038;13.692;2022-10-22T15:05:41;20.80;99.90
3758;DHT22;1894;51.038;13.692;2022-10-22T15:08:13;21.00;99.90
3758;DHT22;1894;51.038;13.692;2022-10-22T15:10:40;20.90;99.90
3758;DHT22;1894;51.038;13.692;2022-10-22T15:13:08;20.90;99.90
3758;DHT22;1894;51.038;13.692;2022-10-22T15:15:38;20.60;99.90
3758;DHT22;1894;51.038;13.692;2022-10-22T15:18:06;20.20;99.90
3758;DHT22;1894;51.038;13.692;2022-10-22T15:20:33;19.90;99.90
3758;DHT22;1894;51.038;13.692;2022-10-22T15:23:00;19.90;99.90
3758;DHT22;1894;51.038;13.692;2022-10-22T15:25:28;19.70;99.90
3758;DHT22;1894;51.038;13.692;2022-10-22T15:27:55;19.70;99.90
3758;DHT22;1894;51.038;13.692;2022-10-22T15:30:33;19.50;99.90
3758;DHT22;1894;51.038;13.692;2022-10-22T15:33:00;19.40;99.90
3758;DHT22;1894;51.038;13.692;2022-10-22T15:35:28;19.40;99.90
3758;DHT22;1894;51.038;13.692;2022-10-22T15:37:55;19.20;99.90
3758;DHT22;1894;51.038;13.692;2022-10-22T15:40:22;19.10;99.90
3758;DHT22;1894;51.038;13.692;2022-10-22T15:42:49;18.90;99.90
3758;DHT22;1894;51.038;13.692;2022-10-22T15:45:16;18.80;99.90
3758;DHT22;1894;51.038;13.692;2022-10-22T15:47:44;18.70;99.90
3758;DHT22;1894;51.038;13.692;2022-10-22T15:50:15;18.60;99.90
3758;DHT22;1894;51.038;13.692;2022-10-22T15:52:43;18.40;99.90
3758;DHT22;1894;51.038;13.692;2022-10-22T15:55:10;18.30;99.90
3758;DHT22;1894;51.038;13.692;2022-10-22T15:57:37;18.10;99.90
3758;DHT22;1894;51.038;13.692;2022-10-22T16:00:06;18.00;99.90
3758;DHT22;1894;51.038;13.692;2022-10-22T16:02:40;18.00;99.90
3758;DHT22;1894;51.038;13.692;2022-10-22T16:05:08;17.80;99.90
3758;DHT22;1894;51.038;13.692;2022-10-22T16:07:35;17.60;99.90
3758;DHT22;1894;51.038;13.692;2022-10-22T16:10:03;17.40;99.90
3758;DHT22;1894;51.038;13.692;2022-10-22T16:12:30;17.20;99.90
3758;DHT22;1894;51.038;13.692;2022-10-22T16:14:57;17.10;99.90
3758;DHT22;1894;51.038;13.692;2022-10-22T16:17:24;16.90;99.90
3758;DHT22;1894;51.038;13.692;2022-10-22T16:19:51;16.80;99.90
3758;DHT22;1894;51.038;13.692;2022-10-22T16:22:19;16.70;99.90
3758;DHT22;1894;51.038;13.692;2022-10-22T16:24:46;16.60;99.90
3758;DHT22;1894;51.038;13.692;2022-10-22T16:27:13;16.50;99.90
3758;DHT22;1894;51.038;13.692;2022-10-22T16:29:40;16.40;99.90
3758;DHT22;1894;51.038;13.692;2022-10-22T16:32:07;16.30;99.90
3758;DHT22;1894;51.038;13.692;2022-10-22T16:34:35;16.20;99.90
3758;DHT22;1894;51.038;13.692;2022-10-22T16:37:02;16.00;99.90
3758;DHT22;1894;51.038;13.692;2022-10-22T16:39:35;15.90;99.90
3758;DHT22;1894;51.038;13.692;2022-10-22T16:42:04;15.80;99.90
3758;DHT22;1894;51.038;13.692;2022-10-22T16:44:31;15.60;99.90
3758;DHT22;1894;51.038;13.692;2022-10-22T16:46:58;15.50;99.90
3758;DHT22;1894;51.038;13.692;2022-10-22T16:49:26;15.40;99.90
3758;DHT22;1894;51.038;13.692;2022-10-22T16:51:53;15.40;99.90
3758;DHT22;1894;51.038;13.692;2022-10-22T16:54:20;15.30;99.90
3758;DHT22;1894;51.038;13.692;2022-10-22T16:56:47;15.20;99.90
3758;DHT22;1894;51.038;13.692;2022-10-22T16:59:15;15.20;99.90
3758;DHT22;1894;51.038;13.692;2022-10-22T17:01:42;15.20;99.90
3758;DHT22;1894;51.038;13.692;2022-10-22T17:04:09;15.10;99.90
3758;DHT22;1894;51.038;13.692;2022-10-22T17:06:36;15.10;99.90
3758;DHT22;1894;51.038;13.692;2022-10-22T17:09:04;15.00;99.90
3758;DHT22;1894;51.038;13.692;2022-10-22T17:11:31;15.00;99.90
3758;DHT22;1894;51.038;13.692;2022-10-22T17:14:03;15.00;99.90
3758;DHT22;1894;51.038;13.692;2022-10-22T17:16:31;15.00;99.90
3758;DHT22;1894;51.038;13.692;2022-10-22T17:18:58;15.00;99.90
3758;DHT22;1894;51.038;13.692;2022-10-22T17:21:25;15.00;99.90
3758;DHT22;1894;51.038;13.692;2022-10-22T17:23:56;15.00;99.90
3758;DHT22;1894;51.038;13.692;2022-10-22T17:26:24;14.90;99.90
3758;DHT22;1894;51.038;13.692;2022-10-22T17:28:53;14.90;99.90
3758;DHT22;1894;51.038;13.692;2022-10-22T17:33:52;14.90;99.90
3758;DHT22;1894;51.038;13.692;2022-10-22T17:36:22;14.90;99.90
3758;DHT22;1894;51.038;13.692;2022-10-22T17:38:52;14.90;99.90
3758;DHT22;1894;51.038;13.692;2022-10-22T17:41:26;14.90;99.90
3758;DHT22;1894;51.038;13.692;2022-10-22T17:44:00;14.90;99.90
3758;DHT22;1894;51.038;13.692;2022-10-22T17:46:29;14.90;99.90
3758;DHT22;1894;51.038;13.692;2022-10-22T17:48:59;14.80;99.90
3758;DHT22;1894;51.038;13.692;2022-10-22T17:51:30;14.80;99.90
3758;DHT22;1894;51.038;13.692;2022-10-22T17:53:57;14.80;99.90
3758;DHT22;1894;51.038;13.692;2022-10-22T17:56:27;14.70;99.90
3758;DHT22;1894;51.038;13.692;2022-10-22T17:58:58;14.70;99.90
3758;DHT22;1894;51.038;13.692;2022-10-22T18:01:29;14.60;99.90
3758;DHT22;1894;51.038;13.692;2022-10-22T18:04:01;14.60;99.90
3758;DHT22;1894;51.038;13.692;2022-10-22T18:06:30;14.60;99.90
3758;DHT22;1894;51.038;13.692;2022-10-22T18:08:58;14.50;99.90
3758;DHT22;1894;51.038;13.692;2022-10-22T18:11:29;14.50;99.90
3758;DHT22;1894;51.038;13.692;2022-10-22T18:13:58;14.50;99.90